createdAt,value
2017-10-22T00:01:07.025Z,10.60
2017-10-22T00:03:09.700Z,10.60
2017-10-22T00:05:12.475Z,10.50
2017-10-22T00:07:15.352Z,10.50
2017-10-22T00:09:18.135Z,10.50
2017-10-22T00:11:22.522Z,10.40
2017-10-22T00:13:25.943Z,10.30
2017-10-22T00:15:28.725Z,10.30
2017-10-22T00:17:31.504Z,10.40
2017-10-22T00:19:34.195Z,10.40
2017-10-22T00:21:36.937Z,10.40
2017-10-22T00:23:40.352Z,10.30
2017-10-22T00:25:43.035Z,10.30
2017-10-22T00:27:45.690Z,10.20
2017-10-22T00:29:48.357Z,10.30
2017-10-22T00:31:51.786Z,10.30
2017-10-22T00:33:54.470Z,10.30
2017-10-22T00:35:57.179Z,10.30
2017-10-22T00:37:59.827Z,10.30
2017-10-22T00:40:02.610Z,10.30
2017-10-22T00:42:05.295Z,10.30
2017-10-22T00:44:08.021Z,10.20
2017-10-22T00:46:11.450Z,10.30
2017-10-22T00:48:14.131Z,10.30
2017-10-22T00:50:16.825Z,10.30
2017-10-22T00:52:19.519Z,10.30
2017-10-22T00:54:22.199Z,10.20
2017-10-22T00:56:24.880Z,10.20
2017-10-22T00:58:27.544Z,10.30
2017-10-22T01:00:30.220Z,10.30
2017-10-22T01:02:32.903Z,10.30
2017-10-22T01:04:35.573Z,10.20
2017-10-22T01:06:38.318Z,10.30
2017-10-22T01:08:40.974Z,10.30
2017-10-22T01:10:44.437Z,10.40
2017-10-22T01:12:47.109Z,10.30
2017-10-22T01:14:49.943Z,10.40
2017-10-22T01:16:52.648Z,10.40
2017-10-22T01:18:55.313Z,10.40
2017-10-22T01:20:58.060Z,10.40
2017-10-22T01:23:00.809Z,10.40
2017-10-22T01:25:03.539Z,10.40
2017-10-22T01:27:06.306Z,10.40
2017-10-22T01:29:08.999Z,10.30
2017-10-22T01:31:11.740Z,10.30
2017-10-22T01:33:15.189Z,10.40
2017-10-22T01:35:17.940Z,10.40
2017-10-22T01:37:20.651Z,10.50
2017-10-22T01:39:23.391Z,10.60
2017-10-22T01:41:26.165Z,10.60
2017-10-22T01:43:28.943Z,10.60
2017-10-22T01:45:31.649Z,10.60
2017-10-22T01:47:34.334Z,10.70
2017-10-22T01:49:37.050Z,10.70
2017-10-22T01:51:40.524Z,10.60
2017-10-22T01:53:43.353Z,10.60
2017-10-22T01:55:46.132Z,10.70
2017-10-22T01:57:48.831Z,10.80
2017-10-22T01:59:51.542Z,10.80
2017-10-22T02:01:54.977Z,10.90
2017-10-22T02:03:57.671Z,10.90
2017-10-22T02:06:00.395Z,10.90
2017-10-22T02:08:03.842Z,10.90
2017-10-22T02:10:06.576Z,10.90
2017-10-22T02:12:10.020Z,11.00
2017-10-22T02:14:12.773Z,10.90
2017-10-22T02:16:15.466Z,11.00
2017-10-22T02:18:18.225Z,10.90
2017-10-22T02:20:20.891Z,11.00
2017-10-22T02:22:23.558Z,11.00
2017-10-22T02:24:27.065Z,11.10
2017-10-22T02:26:29.779Z,11.10
2017-10-22T02:28:37.697Z,11.10
2017-10-22T02:30:40.404Z,11.10
2017-10-22T02:32:43.842Z,11.10
2017-10-22T02:34:46.527Z,11.10
2017-10-22T02:36:49.288Z,11.10
2017-10-22T02:38:51.969Z,11.10
2017-10-22T02:40:54.832Z,11.10
2017-10-22T02:42:57.613Z,11.20
2017-10-22T02:45:00.302Z,11.20
2017-10-22T02:47:03.067Z,11.20
2017-10-22T02:49:05.746Z,11.20
2017-10-22T02:51:08.453Z,11.30
2017-10-22T02:53:12.042Z,11.20
2017-10-22T02:55:14.709Z,11.20
2017-10-22T02:57:17.356Z,11.20
2017-10-22T02:59:20.039Z,11.20
2017-10-22T03:01:22.827Z,11.20
2017-10-22T03:03:25.485Z,11.20
2017-10-22T03:05:28.180Z,11.10
2017-10-22T03:07:30.889Z,10.90
2017-10-22T03:09:33.748Z,10.90
2017-10-22T03:11:36.417Z,10.90
2017-10-22T03:13:39.065Z,10.80
2017-10-22T03:15:42.517Z,10.70
2017-10-22T03:17:45.216Z,10.70
2017-10-22T03:19:48.683Z,10.50
2017-10-22T03:21:51.374Z,10.50
2017-10-22T03:23:54.103Z,10.50
2017-10-22T03:25:56.796Z,10.40
2017-10-22T03:27:59.659Z,10.30
2017-10-22T03:30:02.358Z,10.20
2017-10-22T03:32:05.010Z,10.10
2017-10-22T03:34:07.667Z,10.00
2017-10-22T03:36:11.111Z,9.90
2017-10-22T03:38:13.849Z,9.90
2017-10-22T03:40:16.534Z,9.90
2017-10-22T03:42:19.194Z,9.90
2017-10-22T03:44:22.608Z,9.70
2017-10-22T03:46:25.279Z,9.70
2017-10-22T03:48:27.956Z,9.70
2017-10-22T03:50:30.635Z,9.70
2017-10-22T03:52:33.281Z,9.70
2017-10-22T03:54:36.723Z,9.60
2017-10-22T03:56:39.377Z,9.60
2017-10-22T03:58:42.054Z,9.60
2017-10-22T04:00:44.758Z,9.60
2017-10-22T04:02:47.605Z,9.60
2017-10-22T04:04:50.279Z,9.60
2017-10-22T04:06:52.943Z,9.60
2017-10-22T04:08:56.371Z,9.60
2017-10-22T04:10:59.032Z,9.60
2017-10-22T04:13:01.714Z,9.60
2017-10-22T04:15:04.507Z,9.50
2017-10-22T04:17:07.146Z,9.50
2017-10-22T04:19:09.796Z,9.50
2017-10-22T04:21:13.272Z,9.50
2017-10-22T04:23:15.923Z,9.50
2017-10-22T04:25:18.582Z,9.50
2017-10-22T04:27:21.239Z,9.50
2017-10-22T04:29:24.645Z,9.60
2017-10-22T04:31:27.305Z,9.50
2017-10-22T04:33:30.723Z,9.60
2017-10-22T04:35:33.387Z,9.60
2017-10-22T04:37:36.079Z,9.60
2017-10-22T04:39:38.722Z,9.60
2017-10-22T04:41:42.161Z,9.50
2017-10-22T04:43:44.820Z,9.50
2017-10-22T04:45:47.491Z,9.50
2017-10-22T04:47:50.152Z,9.60
2017-10-22T04:49:53.573Z,9.50
2017-10-22T04:51:56.232Z,9.50
2017-10-22T04:53:58.890Z,9.50
2017-10-22T04:56:02.535Z,9.40
2017-10-22T04:58:05.188Z,9.40
2017-10-22T05:00:07.870Z,9.50
2017-10-22T05:02:10.551Z,9.50
2017-10-22T05:04:13.251Z,9.50
2017-10-22T05:06:15.998Z,9.50
2017-10-22T05:08:18.688Z,9.50
2017-10-22T05:10:21.349Z,9.50
2017-10-22T05:12:23.995Z,9.50
2017-10-22T05:14:27.419Z,9.60
2017-10-22T05:16:30.097Z,9.60
2017-10-22T05:18:32.758Z,9.60
2017-10-22T05:20:35.435Z,9.60
2017-10-22T05:22:38.077Z,9.60
2017-10-22T05:24:40.793Z,9.60
2017-10-22T05:26:45.425Z,9.60
2017-10-22T05:28:48.099Z,9.60
2017-10-22T05:30:50.775Z,9.60
2017-10-22T05:32:53.434Z,9.60
2017-10-22T05:34:56.106Z,9.60
2017-10-22T05:36:59.508Z,9.60
2017-10-22T05:39:02.167Z,9.60
2017-10-22T05:41:06.918Z,9.60
2017-10-22T05:43:09.800Z,9.60
2017-10-22T05:45:12.826Z,9.60
2017-10-22T05:47:16.702Z,9.60
2017-10-22T05:49:19.354Z,9.70
2017-10-22T05:51:22.059Z,9.60
2017-10-22T05:53:24.802Z,9.60
2017-10-22T05:55:27.546Z,9.70
2017-10-22T05:57:30.197Z,9.70
2017-10-22T05:59:32.861Z,9.70
2017-10-22T06:01:35.527Z,9.70
2017-10-22T06:03:38.178Z,9.60
2017-10-22T06:05:41.629Z,9.70
2017-10-22T06:07:44.323Z,9.60
2017-10-22T06:09:46.981Z,9.70
2017-10-22T06:11:49.652Z,9.70
2017-10-22T06:13:52.534Z,9.70
2017-10-22T06:15:55.386Z,9.80
2017-10-22T06:17:58.043Z,9.80
2017-10-22T06:20:00.737Z,9.80
2017-10-22T06:22:03.516Z,9.80
2017-10-22T06:24:06.203Z,9.80
2017-10-22T06:26:08.882Z,9.80
2017-10-22T06:28:11.556Z,9.80
2017-10-22T06:30:14.241Z,9.80
2017-10-22T06:32:17.023Z,9.80
2017-10-22T06:34:19.779Z,9.80
2017-10-22T06:36:22.485Z,9.80
2017-10-22T06:38:25.443Z,9.80
2017-10-22T06:40:39.985Z,9.80
2017-10-22T06:42:42.771Z,9.80
2017-10-22T06:44:46.406Z,9.70
2017-10-22T06:46:49.125Z,9.80
2017-10-22T06:48:52.565Z,9.80
2017-10-22T06:50:55.267Z,9.80
2017-10-22T06:52:57.947Z,9.80
2017-10-22T06:55:00.635Z,9.80
2017-10-22T06:57:04.285Z,9.80
2017-10-22T06:59:06.980Z,9.80
2017-10-22T07:01:09.708Z,9.80
2017-10-22T07:03:12.441Z,9.80
2017-10-22T07:05:15.178Z,9.80
2017-10-22T07:07:17.955Z,9.80
2017-10-22T07:09:20.733Z,9.80
2017-10-22T07:11:23.430Z,9.90
2017-10-22T07:13:26.161Z,9.90
2017-10-22T07:15:29.626Z,9.90
2017-10-22T07:17:32.302Z,9.90
2017-10-22T07:19:34.960Z,9.90
2017-10-22T07:21:37.714Z,9.90
2017-10-22T07:23:40.508Z,9.90
2017-10-22T07:25:43.197Z,9.80
2017-10-22T07:27:46.011Z,9.90
2017-10-22T07:29:49.447Z,10.00
2017-10-22T07:31:52.338Z,10.00
2017-10-22T07:33:55.110Z,10.00
2017-10-22T07:35:57.844Z,10.10
2017-10-22T07:38:01.315Z,10.10
2017-10-22T07:40:04.785Z,10.10
2017-10-22T07:42:07.505Z,10.10
2017-10-22T07:44:10.202Z,10.20
2017-10-22T07:46:13.781Z,10.30
2017-10-22T07:48:17.070Z,10.30
2017-10-22T07:50:19.935Z,10.30
2017-10-22T07:52:22.671Z,10.40
2017-10-22T07:54:25.623Z,10.30
2017-10-22T07:56:29.157Z,10.50
2017-10-22T07:58:31.796Z,10.50
2017-10-22T08:00:35.269Z,10.50
2017-10-22T08:02:37.997Z,10.50
2017-10-22T08:04:40.883Z,10.50
2017-10-22T08:06:43.816Z,10.50
2017-10-22T08:08:47.233Z,10.40
2017-10-22T08:10:49.907Z,10.40
2017-10-22T08:12:53.835Z,10.50
2017-10-22T08:14:56.509Z,10.60
2017-10-22T08:16:59.223Z,10.60
2017-10-22T08:19:01.905Z,10.60
2017-10-22T08:21:04.595Z,10.60
2017-10-22T08:23:09.065Z,10.60
2017-10-22T08:25:11.863Z,10.60
2017-10-22T08:27:14.576Z,10.70
2017-10-22T08:29:18.036Z,10.70
2017-10-22T08:31:20.821Z,10.70
2017-10-22T08:33:23.558Z,10.70
2017-10-22T08:35:26.209Z,10.70
2017-10-22T08:37:29.663Z,10.80
2017-10-22T08:39:32.316Z,10.80
2017-10-22T08:41:34.984Z,10.80
2017-10-22T08:43:37.691Z,10.80
2017-10-22T08:45:40.375Z,10.80
2017-10-22T08:47:43.065Z,10.80
2017-10-22T08:49:45.780Z,10.80
2017-10-22T08:51:48.572Z,10.70
2017-10-22T08:53:51.272Z,10.80
2017-10-22T08:55:54.024Z,10.80
2017-10-22T08:57:56.805Z,10.90
2017-10-22T08:59:59.496Z,10.90
2017-10-22T09:02:02.293Z,10.90
2017-10-22T09:04:04.996Z,11.00
2017-10-22T09:06:08.633Z,10.90
2017-10-22T09:08:11.334Z,10.90
2017-10-22T09:10:14.087Z,10.80
2017-10-22T09:12:16.796Z,10.90
2017-10-22T09:14:19.542Z,10.90
2017-10-22T09:16:22.227Z,10.90
2017-10-22T09:18:24.956Z,11.00
2017-10-22T09:20:27.661Z,10.90
2017-10-22T09:22:30.367Z,10.90
2017-10-22T09:24:33.145Z,10.90
2017-10-22T09:26:35.801Z,10.80
2017-10-22T09:28:38.504Z,10.70
2017-10-22T09:30:41.184Z,10.70
2017-10-22T09:32:43.949Z,10.60
2017-10-22T09:34:46.637Z,10.50
2017-10-22T09:36:49.615Z,10.50
2017-10-22T09:38:52.552Z,10.60
2017-10-22T09:40:56.009Z,10.70
2017-10-22T09:42:58.727Z,10.70
2017-10-22T09:45:02.165Z,10.80
2017-10-22T09:47:04.849Z,10.80
2017-10-22T09:49:07.597Z,11.00
2017-10-22T09:51:10.477Z,11.20
2017-10-22T09:53:13.159Z,11.20
2017-10-22T09:55:15.817Z,11.20
2017-10-22T09:57:18.771Z,11.30
2017-10-22T09:59:22.365Z,11.40
2017-10-22T10:01:25.044Z,11.40
2017-10-22T10:03:28.564Z,11.50
2017-10-22T10:05:32.180Z,11.40
2017-10-22T10:07:34.852Z,11.40
2017-10-22T10:09:37.608Z,11.40
2017-10-22T10:11:41.230Z,11.40
2017-10-22T10:13:44.011Z,11.40
2017-10-22T10:15:46.894Z,11.40
2017-10-22T10:17:49.593Z,11.50
2017-10-22T10:19:52.322Z,11.60
2017-10-22T10:21:55.762Z,11.60
2017-10-22T10:23:58.624Z,11.60
2017-10-22T10:26:01.371Z,11.60
2017-10-22T10:28:04.912Z,11.80
2017-10-22T10:30:07.618Z,11.80
2017-10-22T10:32:10.289Z,12.10
2017-10-22T10:34:13.001Z,12.40
2017-10-22T10:36:16.448Z,12.70
2017-10-22T10:38:19.179Z,12.80
2017-10-22T10:40:21.889Z,12.80
2017-10-22T10:42:24.592Z,13.00
2017-10-22T10:44:27.285Z,12.70
2017-10-22T10:46:30.759Z,12.10
2017-10-22T10:48:34.220Z,12.00
2017-10-22T10:50:36.950Z,12.00
2017-10-22T10:52:39.717Z,11.90
2017-10-22T10:54:42.412Z,12.00
2017-10-22T10:56:45.947Z,12.30
2017-10-22T10:58:48.721Z,12.30
2017-10-22T11:00:51.504Z,12.20
2017-10-22T11:02:54.197Z,12.30
2017-10-22T11:04:56.898Z,12.40
2017-10-22T11:06:59.641Z,12.50
2017-10-22T11:09:02.335Z,12.70
2017-10-22T11:11:05.086Z,12.80
2017-10-22T11:13:07.772Z,13.00
2017-10-22T11:15:10.466Z,13.20
2017-10-22T11:17:13.153Z,13.30
2017-10-22T11:19:15.816Z,13.40
2017-10-22T11:21:18.500Z,13.20
2017-10-22T11:23:21.185Z,13.10
2017-10-22T11:25:23.896Z,12.80
2017-10-22T11:27:27.331Z,12.20
2017-10-22T11:29:30.057Z,12.20
2017-10-22T11:31:33.476Z,11.80
2017-10-22T11:33:36.139Z,11.70
2017-10-22T11:35:39.601Z,11.30
2017-10-22T11:37:42.286Z,11.30
2017-10-22T11:39:44.946Z,11.20
2017-10-22T11:41:47.620Z,11.20
2017-10-22T11:43:50.280Z,11.20
2017-10-22T11:45:52.947Z,11.10
2017-10-22T11:47:55.624Z,11.10
2017-10-22T11:49:58.500Z,11.10
2017-10-22T11:52:01.159Z,11.20
2017-10-22T11:54:03.855Z,11.00
2017-10-22T11:56:06.526Z,10.90
2017-10-22T11:58:09.198Z,10.90
2017-10-22T12:00:11.978Z,10.80
2017-10-22T12:02:14.662Z,10.90
2017-10-22T12:04:17.441Z,10.90
2017-10-22T12:06:21.447Z,11.00
2017-10-22T12:08:24.143Z,11.00
2017-10-22T12:10:26.894Z,11.20
2017-10-22T12:12:29.786Z,11.50
2017-10-22T12:14:32.551Z,11.70
2017-10-22T12:16:36.041Z,11.90
2017-10-22T12:18:38.748Z,12.20
2017-10-22T12:20:41.435Z,12.30
2017-10-22T12:22:44.139Z,12.40
2017-10-22T12:24:47.639Z,12.40
2017-10-22T12:26:52.175Z,12.50
2017-10-22T12:28:54.986Z,12.40
2017-10-22T12:30:57.654Z,12.40
2017-10-22T12:33:00.525Z,12.30
2017-10-22T12:35:03.490Z,12.40
2017-10-22T12:37:07.233Z,12.30
2017-10-22T12:39:09.927Z,12.30
2017-10-22T12:43:21.732Z,12.20
2017-10-22T12:45:24.393Z,12.00
2017-10-22T12:47:27.055Z,11.90
2017-10-22T12:49:29.758Z,12.00
2017-10-22T12:51:32.417Z,11.80
2017-10-22T12:53:35.083Z,11.70
2017-10-22T12:55:38.004Z,11.70
2017-10-22T12:57:40.654Z,11.80
2017-10-22T12:59:43.308Z,11.70
2017-10-22T13:01:46.108Z,11.70
2017-10-22T13:03:48.785Z,11.50
2017-10-22T13:05:51.462Z,11.60
2017-10-22T13:07:54.157Z,11.50
2017-10-22T13:09:56.862Z,11.60
2017-10-22T13:12:00.284Z,11.50
2017-10-22T13:14:02.979Z,11.50
2017-10-22T13:16:05.645Z,11.50
2017-10-22T13:18:08.308Z,11.50
2017-10-22T13:20:11.041Z,11.80
2017-10-22T13:22:13.698Z,11.80
2017-10-22T13:24:16.444Z,12.10
2017-10-22T13:26:19.144Z,12.10
2017-10-22T13:28:21.803Z,12.20
2017-10-22T13:30:24.519Z,12.50
2017-10-22T13:32:27.253Z,12.50
2017-10-22T13:34:29.901Z,12.40
2017-10-22T13:36:33.375Z,12.50
2017-10-22T13:38:36.112Z,12.50
2017-10-22T13:40:38.925Z,12.50
2017-10-22T13:42:41.602Z,12.40
2017-10-22T13:44:44.316Z,12.30
2017-10-22T13:46:47.012Z,12.10
2017-10-22T13:48:49.670Z,12.20
2017-10-22T13:50:52.368Z,12.10
2017-10-22T13:52:55.009Z,12.20
2017-10-22T13:54:58.461Z,12.30
2017-10-22T13:57:01.159Z,12.30
2017-10-22T13:59:03.877Z,12.10
2017-10-22T14:01:06.553Z,12.00
2017-10-22T14:03:09.206Z,11.80
2017-10-22T14:05:12.628Z,11.60
2017-10-22T14:07:15.332Z,11.60
2017-10-22T14:09:18.007Z,11.60
2017-10-22T14:11:20.714Z,11.60
2017-10-22T14:13:24.152Z,11.50
2017-10-22T14:15:26.984Z,11.50
2017-10-22T14:17:29.655Z,11.50
2017-10-22T14:19:32.335Z,11.30
2017-10-22T14:21:35.002Z,11.40
2017-10-22T14:23:37.653Z,11.30
2017-10-22T14:25:40.339Z,11.20
2017-10-22T14:27:43.109Z,11.30
2017-10-22T14:29:45.863Z,11.30
2017-10-22T14:31:48.662Z,11.10
2017-10-22T14:33:51.372Z,11.00
2017-10-22T14:35:54.101Z,11.00
2017-10-22T14:37:56.782Z,11.00
2017-10-22T14:39:59.428Z,10.90
2017-10-22T14:42:02.883Z,10.70
2017-10-22T14:44:05.547Z,10.70
2017-10-22T14:46:08.247Z,10.90
2017-10-22T14:48:10.903Z,10.80
2017-10-22T14:50:13.588Z,10.80
2017-10-22T14:52:16.261Z,10.70
2017-10-22T14:54:19.007Z,10.70
2017-10-22T14:56:21.785Z,10.60
2017-10-22T14:58:25.221Z,10.60
2017-10-22T15:00:27.881Z,10.60
2017-10-22T15:02:30.584Z,10.50
2017-10-22T15:04:33.262Z,10.50
2017-10-22T15:06:35.941Z,10.60
2017-10-22T15:08:38.590Z,10.80
2017-10-22T15:10:41.529Z,10.90
2017-10-22T15:12:44.441Z,10.90
2017-10-22T15:14:47.143Z,11.00
2017-10-22T15:16:49.848Z,11.00
2017-10-22T15:18:53.270Z,10.80
2017-10-22T15:20:55.969Z,10.80
2017-10-22T15:22:58.632Z,10.70
2017-10-22T15:25:01.288Z,10.70
2017-10-22T15:27:04.005Z,10.60
2017-10-22T15:29:06.910Z,10.50
2017-10-22T15:31:10.453Z,10.50
2017-10-22T15:33:13.173Z,10.50
2017-10-22T15:35:15.946Z,10.40
2017-10-22T15:37:18.623Z,10.40
2017-10-22T15:39:21.603Z,10.40
2017-10-22T15:41:24.257Z,10.30
2017-10-22T15:43:26.897Z,10.30
2017-10-22T15:45:30.353Z,10.20
2017-10-22T15:47:33.024Z,10.10
2017-10-22T15:49:35.678Z,10.20
2017-10-22T15:51:38.363Z,10.10
2017-10-22T15:53:41.006Z,10.10
2017-10-22T15:55:43.646Z,10.10
2017-10-22T15:57:46.535Z,10.20
2017-10-22T15:59:49.965Z,10.20
2017-10-22T16:01:53.650Z,10.20
2017-10-22T16:03:56.358Z,10.20
2017-10-22T16:05:59.120Z,10.20
2017-10-22T16:08:01.897Z,10.20
2017-10-22T16:10:04.724Z,10.20
2017-10-22T16:12:07.446Z,10.20
2017-10-22T16:14:10.133Z,10.10
2017-10-22T16:16:12.844Z,10.00
2017-10-22T16:18:15.585Z,10.00
2017-10-22T16:20:18.256Z,10.00
2017-10-22T16:22:20.917Z,9.90
2017-10-22T16:24:24.428Z,9.80
2017-10-22T16:26:27.110Z,9.80
2017-10-22T16:28:29.806Z,9.80
2017-10-22T16:30:32.463Z,9.90
2017-10-22T16:32:35.116Z,10.00
2017-10-22T16:34:38.562Z,10.00
2017-10-22T16:36:41.239Z,10.00
2017-10-22T16:38:43.889Z,10.00
2017-10-22T16:40:46.567Z,10.00
2017-10-22T16:42:49.211Z,9.90
2017-10-22T16:44:52.839Z,9.80
2017-10-22T16:46:55.519Z,9.80
2017-10-22T16:48:58.188Z,9.70
2017-10-22T16:51:01.478Z,9.60
2017-10-22T16:53:04.125Z,9.50
2017-10-22T16:55:07.561Z,9.50
2017-10-22T16:57:10.230Z,9.40
2017-10-22T16:59:12.878Z,9.50
2017-10-22T17:01:16.321Z,9.50
2017-10-22T17:03:18.975Z,9.50
2017-10-22T17:05:21.849Z,9.50
2017-10-22T17:07:24.554Z,9.50
2017-10-22T17:09:27.201Z,9.50
2017-10-22T17:11:29.878Z,9.40
2017-10-22T17:13:32.663Z,9.50
2017-10-22T17:15:35.317Z,9.50
2017-10-22T17:17:37.994Z,9.50
2017-10-22T17:19:40.668Z,9.40
2017-10-22T17:21:43.339Z,9.40
2017-10-22T17:23:46.748Z,9.40
2017-10-22T17:25:49.453Z,9.40
2017-10-22T17:27:52.637Z,9.40
2017-10-22T17:29:55.331Z,9.40
2017-10-22T17:31:58.024Z,9.50
2017-10-22T17:34:01.583Z,9.40
2017-10-22T17:36:04.359Z,9.40
2017-10-22T17:38:07.436Z,9.40
2017-10-22T17:40:10.219Z,9.30
2017-10-22T17:42:13.128Z,9.40
2017-10-22T17:44:15.888Z,9.40
2017-10-22T17:46:18.661Z,9.40
2017-10-22T17:48:22.312Z,9.40
2017-10-22T17:50:25.747Z,9.20
2017-10-22T17:52:28.662Z,9.20
2017-10-22T17:54:31.442Z,9.20
2017-10-22T17:56:34.588Z,9.20
2017-10-22T17:58:37.408Z,9.30
2017-10-22T18:00:40.970Z,9.50
2017-10-22T18:02:43.726Z,9.50
2017-10-22T18:04:46.531Z,9.60
2017-10-22T18:06:49.328Z,9.60
2017-10-22T18:08:52.382Z,9.60
2017-10-22T18:10:55.633Z,9.60
2017-10-22T18:13:01.741Z,9.60
2017-10-22T18:15:05.270Z,9.60
2017-10-22T18:17:08.234Z,9.60
2017-10-22T18:19:12.218Z,9.40
2017-10-22T18:21:15.198Z,9.50
2017-10-22T18:23:18.046Z,9.50
2017-10-22T18:25:21.393Z,9.50
2017-10-22T18:27:24.208Z,9.60
2017-10-22T18:29:27.544Z,9.50
2017-10-22T18:31:31.188Z,9.50
2017-10-22T18:33:34.065Z,9.60
2017-10-22T18:35:38.070Z,9.60
2017-10-22T18:37:40.955Z,9.60
2017-10-22T18:39:43.795Z,9.60
2017-10-22T18:41:47.481Z,9.70
2017-10-22T18:43:52.114Z,9.70
2017-10-22T18:45:54.799Z,9.70
2017-10-22T18:47:57.595Z,9.70
2017-10-22T18:50:00.596Z,9.70
2017-10-22T18:52:03.426Z,9.70
2017-10-22T18:54:06.623Z,9.70
2017-10-22T18:56:09.287Z,9.70
2017-10-22T18:58:12.132Z,9.70
2017-10-22T19:00:15.702Z,9.70
2017-10-22T19:02:18.455Z,9.70
2017-10-22T19:04:22.361Z,9.70
2017-10-22T19:06:25.074Z,9.70
2017-10-22T19:08:27.709Z,9.60
2017-10-22T19:10:30.593Z,9.60
2017-10-22T19:12:33.266Z,9.60
2017-10-22T19:14:35.935Z,9.60
2017-10-22T19:16:38.617Z,9.60
2017-10-22T19:18:41.270Z,9.60
2017-10-22T19:20:44.678Z,9.70
2017-10-22T19:22:47.342Z,9.70
2017-10-22T19:24:50.894Z,9.70
2017-10-22T19:26:53.675Z,9.70
2017-10-22T19:28:56.341Z,9.80
2017-10-22T19:30:59.225Z,9.80
2017-10-22T19:33:02.092Z,9.90
2017-10-22T19:35:04.749Z,9.80
2017-10-22T19:37:07.436Z,9.90
2017-10-22T19:39:10.329Z,9.80
2017-10-22T19:41:12.976Z,9.80
2017-10-22T19:43:15.656Z,9.90
2017-10-22T19:45:18.329Z,9.80
2017-10-22T19:47:21.126Z,9.90
2017-10-22T19:49:23.793Z,9.90
2017-10-22T19:51:26.587Z,9.90
2017-10-22T19:53:29.372Z,9.90
2017-10-22T19:55:32.291Z,10.00
2017-10-22T19:57:35.027Z,9.90
2017-10-22T19:59:37.712Z,9.90
2017-10-22T20:01:40.396Z,9.80
2017-10-22T20:03:43.405Z,9.80
2017-10-22T20:05:46.924Z,9.70
2017-10-22T20:07:50.541Z,9.70
2017-10-22T20:09:53.328Z,9.60
2017-10-22T20:11:56.199Z,9.60
2017-10-22T20:13:58.977Z,9.70
2017-10-22T20:16:01.634Z,9.70
2017-10-22T20:18:04.346Z,9.60
2017-10-22T20:20:07.201Z,9.60
2017-10-22T20:22:09.987Z,9.60
2017-10-22T20:24:12.715Z,9.60
2017-10-22T20:26:15.534Z,9.60
2017-10-22T20:28:18.490Z,9.60
2017-10-22T20:30:22.039Z,9.50
2017-10-22T20:32:24.755Z,9.50
2017-10-22T20:34:27.569Z,9.50
2017-10-22T20:36:30.607Z,9.50
2017-10-22T20:38:33.387Z,9.50
2017-10-22T20:40:36.088Z,9.60
2017-10-22T20:42:39.558Z,9.50
2017-10-22T20:44:43.727Z,9.50
2017-10-22T20:46:46.398Z,9.50
2017-10-22T20:48:49.041Z,9.50
2017-10-22T20:50:51.844Z,9.50
2017-10-22T20:52:54.521Z,9.50
2017-10-22T20:54:57.210Z,9.50
2017-10-22T20:56:59.888Z,9.60
2017-10-22T20:59:02.937Z,9.60
2017-10-22T21:01:06.379Z,9.70
2017-10-22T21:03:09.104Z,9.70
2017-10-22T21:05:12.130Z,9.70
2017-10-22T21:07:14.950Z,9.60
2017-10-22T21:09:17.805Z,9.60
2017-10-22T21:11:20.567Z,9.50
2017-10-22T21:13:23.460Z,9.50
2017-10-22T21:15:26.343Z,9.50
2017-10-22T21:17:29.211Z,9.50
2017-10-22T21:19:31.890Z,9.50
2017-10-22T21:21:34.845Z,9.50
2017-10-22T21:23:38.692Z,9.50
2017-10-22T21:25:41.711Z,9.40
2017-10-22T21:27:44.423Z,9.40
2017-10-22T21:29:47.105Z,9.50
2017-10-22T21:31:49.786Z,9.40
2017-10-22T21:33:52.466Z,9.40
2017-10-22T21:35:55.161Z,9.40
2017-10-22T21:37:57.924Z,9.40
2017-10-22T21:40:00.576Z,9.30
2017-10-22T21:42:04.247Z,9.30
2017-10-22T21:44:06.942Z,9.30
2017-10-22T21:46:10.479Z,9.20
2017-10-22T21:48:13.320Z,9.20
2017-10-22T21:50:16.752Z,9.30
2017-10-22T21:52:19.429Z,9.30
2017-10-22T21:54:22.134Z,9.30
2017-10-22T21:56:24.804Z,9.40
2017-10-22T21:58:27.549Z,9.40
2017-10-22T22:00:30.206Z,9.50
2017-10-22T22:02:35.041Z,9.50
2017-10-22T22:04:37.754Z,9.40
2017-10-22T22:06:40.404Z,9.40
2017-10-22T22:08:43.064Z,9.40
2017-10-22T22:10:45.758Z,9.40
2017-10-22T22:12:48.410Z,9.40
2017-10-22T22:14:51.115Z,9.50
2017-10-22T22:16:53.785Z,9.40
2017-10-22T22:18:56.433Z,9.50
2017-10-22T22:20:59.856Z,9.40
2017-10-22T22:23:02.539Z,9.40
2017-10-22T22:25:05.311Z,9.50
2017-10-22T22:27:07.972Z,9.50
2017-10-22T22:29:10.764Z,9.50
2017-10-22T22:31:13.418Z,9.50
2017-10-22T22:33:16.925Z,9.60
2017-10-22T22:35:19.603Z,9.60
2017-10-22T22:37:22.287Z,9.60
2017-10-22T22:39:25.060Z,9.60
2017-10-22T22:41:27.731Z,9.60
2017-10-22T22:43:30.436Z,9.60
2017-10-22T22:45:33.069Z,9.60
2017-10-22T22:47:36.508Z,9.60
2017-10-22T22:49:39.173Z,9.50
2017-10-22T22:51:41.943Z,9.60
2017-10-22T22:53:44.608Z,9.60
2017-10-22T22:55:47.403Z,9.60
2017-10-22T22:57:50.175Z,9.60
2017-10-22T22:59:52.806Z,9.60
2017-10-22T23:01:56.241Z,9.60
2017-10-22T23:03:58.910Z,9.60
2017-10-22T23:06:01.694Z,9.60
2017-10-22T23:08:04.470Z,9.60
2017-10-22T23:10:07.255Z,9.60
2017-10-22T23:12:09.929Z,9.60
2017-10-22T23:14:12.608Z,9.60
2017-10-22T23:16:15.291Z,9.60
2017-10-22T23:18:18.093Z,9.60
2017-10-22T23:20:20.762Z,9.60
2017-10-22T23:22:23.621Z,9.60
2017-10-22T23:24:26.383Z,9.60
2017-10-22T23:26:29.083Z,9.60
2017-10-22T23:28:31.795Z,9.60
2017-10-22T23:30:34.488Z,9.50
2017-10-22T23:32:37.131Z,9.60
2017-10-22T23:34:39.879Z,9.60
2017-10-22T23:36:42.532Z,9.50
2017-10-22T23:38:45.946Z,9.40
2017-10-22T23:40:48.760Z,9.40
2017-10-22T23:42:51.427Z,9.50
2017-10-22T23:44:54.205Z,9.50
2017-10-22T23:46:56.874Z,9.50
2017-10-22T23:48:59.528Z,9.50
2017-10-22T23:51:02.197Z,9.50
2017-10-22T23:53:04.845Z,9.50
2017-10-22T23:55:07.478Z,9.50
2017-10-22T23:57:10.135Z,9.50
2017-10-22T23:59:12.792Z,9.50
